Terminal Aerodrome Forecast
Issued by NWS Tulsa, OK

Home | Current Version | Previous Version | Text Only | Print | Product List | Glossary On
Versions: 1 2 3 4 5 6 7 8 9 10 11 12 13
000
FTUS44 KTSA 041738
TAFTUL
TAF
KTUL 041738Z 0418/0518 23007KT P6SM BKN110 BKN200
     FM050000 11007KT P6SM VCTS SCT050CB OVC100
     FM050400 09006KT P6SM OVC100
     FM051500 16008KT P6SM BKN250=

USA.gov is the U.S. government's official web portal to all federal, state and local government web resources and services.